Yellowknife, Canada
Current Conditions -  °F | °C
As of 7:00 AM on Thursday 23 Oct 2014 (Local Time) from CYZF Reporting Station
Light Rain Light Rain  
Wind Chill: 28°   Ceiling: 500
Heat Index: 37°   Visibility: 15mi
Dew Point: 36°   Wind: 16mph
Humidity: 93%   Direction: 110°ESE
Pressure: 29.51"   Gusts: 23mph
Location:  62.45°N, 114.37°W
Report Text: CYZF 231300Z 11014G20KT 15SM -RA OVC005 03/02 A2951 RMK SF8 CIG RAG SLP006
Loading
Personal Weather Stations






























Interactive Weather Map
Tropical Storm Tracking
New forecast layout! Learn more

10-Day Weather Forecast

Advertisements
Track Severe Weather on mobile